sensor_id;sensor_type;location;lat;lon;timestamp;pressure;altitude;pressure_sealevel;temperature;humidity
2875;BME280;1445;52.600;13.328;2023-12-28T00:01:29;78280.88;;;-145.99;100.00
2875;BME280;1445;52.600;13.328;2023-12-28T00:03:54;78291.41;;;-145.99;100.00
2875;BME280;1445;52.600;13.328;2023-12-28T00:06:19;78299.78;;;-145.99;100.00
2875;BME280;1445;52.600;13.328;2023-12-28T00:08:44;78291.41;;;-145.99;100.00
2875;BME280;1445;52.600;13.328;2023-12-28T00:11:10;78287.19;;;-145.99;100.00
2875;BME280;1445;52.600;13.328;2023-12-28T00:13:35;78276.69;;;-145.99;100.00
2875;BME280;1445;52.600;13.328;2023-12-28T00:16:00;78266.19;;;-145.99;100.00
2875;BME280;1445;52.600;13.328;2023-12-28T00:18:26;78261.97;;;-145.99;100.00
2875;BME280;1445;52.600;13.328;2023-12-28T00:20:51;78253.59;;;-145.99;100.00
2875;BME280;1445;52.600;13.328;2023-12-28T00:23:16;78253.59;;;-145.99;100.00
2875;BME280;1445;52.600;13.328;2023-12-28T00:25:41;78249.38;;;-145.99;100.00
2875;BME280;1445;52.600;13.328;2023-12-28T00:28:07;78240.97;;;-145.99;100.00
2875;BME280;1445;52.600;13.328;2023-12-28T00:30:32;78243.06;;;-145.99;100.00
2875;BME280;1445;52.600;13.328;2023-12-28T00:32:58;78245.19;;;-145.99;100.00
2875;BME280;1445;52.600;13.328;2023-12-28T00:35:23;78243.06;;;-145.99;100.00
2875;BME280;1445;52.600;13.328;2023-12-28T00:37:48;78249.38;;;-145.99;100.00
2875;BME280;1445;52.600;13.328;2023-12-28T00:40:13;78240.97;;;-145.99;100.00
2875;BME280;1445;52.600;13.328;2023-12-28T00:42:39;78236.78;;;-145.99;100.00
2875;BME280;1445;52.600;13.328;2023-12-28T00:45:06;78228.38;;;-145.99;100.00
2875;BME280;1445;52.600;13.328;2023-12-28T00:47:31;78232.56;;;-145.99;100.00
2875;BME280;1445;52.600;13.328;2023-12-28T00:49:56;78240.97;;;-145.99;100.00
2875;BME280;1445;52.600;13.328;2023-12-28T00:52:22;78232.56;;;-145.99;100.00
2875;BME280;1445;52.600;13.328;2023-12-28T00:54:47;78234.69;;;-145.99;100.00
2875;BME280;1445;52.600;13.328;2023-12-28T00:57:12;78243.06;;;-145.99;100.00
2875;BME280;1445;52.600;13.328;2023-12-28T00:59:38;78236.78;;;-145.99;100.00
2875;BME280;1445;52.600;13.328;2023-12-28T01:02:03;78226.28;;;-145.99;100.00
2875;BME280;1445;52.600;13.328;2023-12-28T01:04:28;78213.66;;;-145.99;100.00
2875;BME280;1445;52.600;13.328;2023-12-28T01:06:53;78201.06;;;-145.99;100.00
2875;BME280;1445;52.600;13.328;2023-12-28T01:09:19;78192.66;;;-145.99;100.00
2875;BME280;1445;52.600;13.328;2023-12-28T01:11:44;78182.16;;;-145.99;100.00
2875;BME280;1445;52.600;13.328;2023-12-28T01:14:09;78182.16;;;-145.99;100.00
2875;BME280;1445;52.600;13.328;2023-12-28T01:16:35;78163.25;;;-145.99;100.00
2875;BME280;1445;52.600;13.328;2023-12-28T01:19:00;78146.44;;;-145.99;100.00
2875;BME280;1445;52.600;13.328;2023-12-28T01:21:26;78138.03;;;-145.99;100.00
2875;BME280;1445;52.600;13.328;2023-12-28T01:23:51;78135.94;;;-145.99;100.00
2875;BME280;1445;52.600;13.328;2023-12-28T01:26:17;78127.53;;;-145.99;100.00
2875;BME280;1445;52.600;13.328;2023-12-28T01:28:42;78114.94;;;-145.99;100.00
2875;BME280;1445;52.600;13.328;2023-12-28T01:31:07;78110.72;;;-145.99;100.00
2875;BME280;1445;52.600;13.328;2023-12-28T01:33:33;78098.13;;;-145.99;100.00
2875;BME280;1445;52.600;13.328;2023-12-28T01:35:58;78098.13;;;-145.99;100.00
2875;BME280;1445;52.600;13.328;2023-12-28T01:38:24;78100.22;;;-145.99;100.00
2875;BME280;1445;52.600;13.328;2023-12-28T01:40:49;78085.53;;;-145.99;100.00
2875;BME280;1445;52.600;13.328;2023-12-28T01:43:14;78079.22;;;-145.99;100.00
2875;BME280;1445;52.600;13.328;2023-12-28T01:45:39;78081.31;;;-145.99;100.00
2875;BME280;1445;52.600;13.328;2023-12-28T01:48:05;78064.53;;;-145.99;100.00
2875;BME280;1445;52.600;13.328;2023-12-28T01:50:30;78064.53;;;-145.99;100.00
2875;BME280;1445;52.600;13.328;2023-12-28T01:52:56;78062.41;;;-145.99;100.00
2875;BME280;1445;52.600;13.328;2023-12-28T01:55:23;78064.53;;;-145.99;100.00
2875;BME280;1445;52.600;13.328;2023-12-28T01:57:49;78043.50;;;-145.99;100.00
2875;BME280;1445;52.600;13.328;2023-12-28T02:00:15;78037.22;;;-145.99;100.00
2875;BME280;1445;52.600;13.328;2023-12-28T02:02:44;78024.59;;;-145.99;100.00
2875;BME280;1445;52.600;13.328;2023-12-28T02:05:12;78009.91;;;-145.99;100.00
2875;BME280;1445;52.600;13.328;2023-12-28T02:07:38;78024.59;;;-145.99;100.00
2875;BME280;1445;52.600;13.328;2023-12-28T02:10:03;78022.50;;;-145.99;100.00
2875;BME280;1445;52.600;13.328;2023-12-28T02:12:28;78012.00;;;-145.99;100.00
2875;BME280;1445;52.600;13.328;2023-12-28T02:14:54;78030.91;;;-145.99;100.00
2875;BME280;1445;52.600;13.328;2023-12-28T02:17:23;78030.91;;;-145.99;100.00
2875;BME280;1445;52.600;13.328;2023-12-28T02:19:52;78026.72;;;-145.99;100.00
2875;BME280;1445;52.600;13.328;2023-12-28T02:22:19;78037.22;;;-145.99;100.00
2875;BME280;1445;52.600;13.328;2023-12-28T02:25:28;78035.09;;;-145.99;100.00
2875;BME280;1445;52.600;13.328;2023-12-28T02:27:41;78026.72;;;-145.99;100.00
2875;BME280;1445;52.600;13.328;2023-12-28T02:30:07;78026.72;;;-145.99;100.00
2875;BME280;1445;52.600;13.328;2023-12-28T02:32:42;78012.00;;;-145.99;100.00
2875;BME280;1445;52.600;13.328;2023-12-28T02:35:12;77988.91;;;-145.99;100.00
2875;BME280;1445;52.600;13.328;2023-12-28T02:37:39;77957.38;;;-145.99;100.00
2875;BME280;1445;52.600;13.328;2023-12-28T02:40:05;77932.19;;;-145.99;100.00
2875;BME280;1445;52.600;13.328;2023-12-28T02:42:31;77885.97;;;-145.99;100.00
2875;BME280;1445;52.600;13.328;2023-12-28T02:44:56;77862.88;;;-145.99;100.00
2875;BME280;1445;52.600;13.328;2023-12-28T02:47:22;77854.47;;;-145.99;100.00
2875;BME280;1445;52.600;13.328;2023-12-28T02:49:47;77814.56;;;-145.99;100.00
2875;BME280;1445;52.600;13.328;2023-12-28T02:52:12;77799.84;;;-145.99;100.00
2875;BME280;1445;52.600;13.328;2023-12-28T02:54:38;77785.16;;;-145.99;100.00
2875;BME280;1445;52.600;13.328;2023-12-28T02:57:03;77766.25;;;-145.99;100.00
2875;BME280;1445;52.600;13.328;2023-12-28T02:59:28;77753.66;;;-145.99;100.00
2875;BME280;1445;52.600;13.328;2023-12-28T03:01:53;77734.75;;;-145.99;100.00
2875;BME280;1445;52.600;13.328;2023-12-28T03:04:19;77732.63;;;-145.99;100.00
2875;BME280;1445;52.600;13.328;2023-12-28T03:06:46;77724.25;;;-145.99;100.00
2875;BME280;1445;52.600;13.328;2023-12-28T03:09:11;77711.63;;;-145.99;100.00
2875;BME280;1445;52.600;13.328;2023-12-28T03:11:36;77720.03;;;-145.99;100.00
2875;BME280;1445;52.600;13.328;2023-12-28T03:14:02;77713.75;;;-145.99;100.00
2875;BME280;1445;52.600;13.328;2023-12-28T03:16:27;77703.22;;;-145.99;100.00
2875;BME280;1445;52.600;13.328;2023-12-28T03:18:52;77741.03;;;-145.99;100.00
2875;BME280;1445;52.600;13.328;2023-12-28T03:21:17;77724.25;;;-145.99;100.00
2875;BME280;1445;52.600;13.328;2023-12-28T03:23:43;77717.94;;;-145.99;100.00
2875;BME280;1445;52.600;13.328;2023-12-28T03:26:08;77732.63;;;-145.99;100.00
2875;BME280;1445;52.600;13.328;2023-12-28T03:28:33;77728.44;;;-145.99;100.00
2875;BME280;1445;52.600;13.328;2023-12-28T03:31:01;77732.63;;;-145.99;100.00
2875;BME280;1445;52.600;13.328;2023-12-28T03:33:26;77717.94;;;-145.99;100.00
2875;BME280;1445;52.600;13.328;2023-12-28T03:35:52;77728.44;;;-145.99;100.00
2875;BME280;1445;52.600;13.328;2023-12-28T03:38:17;77736.84;;;-145.99;100.00
2875;BME280;1445;52.600;13.328;2023-12-28T03:40:43;77762.03;;;-145.99;100.00
2875;BME280;1445;52.600;13.328;2023-12-28T03:43:08;77762.03;;;-145.99;100.00
2875;BME280;1445;52.600;13.328;2023-12-28T03:45:34;77783.03;;;-145.99;100.00
2875;BME280;1445;52.600;13.328;2023-12-28T03:47:59;77793.56;;;-145.99;100.00
2875;BME280;1445;52.600;13.328;2023-12-28T03:50:24;77816.66;;;-145.99;100.00
2875;BME280;1445;52.600;13.328;2023-12-28T03:52:49;77833.47;;;-145.99;100.00
2875;BME280;1445;52.600;13.328;2023-12-28T03:55:15;77856.56;;;-145.99;100.00
2875;BME280;1445;52.600;13.328;2023-12-28T03:57:40;77829.25;;;-145.99;100.00
2875;BME280;1445;52.600;13.328;2023-12-28T04:00:07;77843.97;;;-145.99;100.00
2875;BME280;1445;52.600;13.328;2023-12-28T04:02:33;77829.25;;;-145.99;100.00
2875;BME280;1445;52.600;13.328;2023-12-28T04:04:58;77835.56;;;-145.99;100.00
2875;BME280;1445;52.600;13.328;2023-12-28T04:07:24;77818.75;;;-145.99;100.00
2875;BME280;1445;52.600;13.328;2023-12-28T04:09:49;77820.84;;;-145.99;100.00
2875;BME280;1445;52.600;13.328;2023-12-28T04:12:14;77793.56;;;-145.99;100.00
2875;BME280;1445;52.600;13.328;2023-12-28T04:14:39;77764.16;;;-145.99;100.00
2875;BME280;1445;52.600;13.328;2023-12-28T04:17:05;77766.25;;;-145.99;100.00
2875;BME280;1445;52.600;13.328;2023-12-28T04:19:30;77774.66;;;-145.99;100.00
2875;BME280;1445;52.600;13.328;2023-12-28T04:21:55;77759.94;;;-145.99;100.00
2875;BME280;1445;52.600;13.328;2023-12-28T04:24:21;77762.03;;;-145.99;100.00
2875;BME280;1445;52.600;13.328;2023-12-28T04:26:46;77730.53;;;-145.99;100.00
2875;BME280;1445;52.600;13.328;2023-12-28T04:29:11;77736.84;;;-145.99;100.00
2875;BME280;1445;52.600;13.328;2023-12-28T04:31:40;77747.34;;;-145.99;100.00
2875;BME280;1445;52.600;13.328;2023-12-28T04:34:06;77732.63;;;-145.99;100.00
2875;BME280;1445;52.600;13.328;2023-12-28T04:36:31;77751.53;;;-145.99;100.00
2875;BME280;1445;52.600;13.328;2023-12-28T04:38:56;77722.13;;;-145.99;100.00
2875;BME280;1445;52.600;13.328;2023-12-28T04:41:21;77724.25;;;-145.99;100.00
2875;BME280;1445;52.600;13.328;2023-12-28T04:43:47;77715.84;;;-145.99;100.00
2875;BME280;1445;52.600;13.328;2023-12-28T04:46:12;77707.44;;;-145.99;100.00
2875;BME280;1445;52.600;13.328;2023-12-28T04:48:37;77711.63;;;-145.99;100.00
2875;BME280;1445;52.600;13.328;2023-12-28T04:51:03;77703.22;;;-145.99;100.00
2875;BME280;1445;52.600;13.328;2023-12-28T04:53:28;77717.94;;;-145.99;100.00
2875;BME280;1445;52.600;13.328;2023-12-28T04:55:55;77703.22;;;-145.99;100.00
2875;BME280;1445;52.600;13.328;2023-12-28T04:58:20;77699.03;;;-145.99;100.00
2875;BME280;1445;52.600;13.328;2023-12-28T05:00:45;77701.13;;;-145.99;100.00
2875;BME280;1445;52.600;13.328;2023-12-28T05:03:11;77703.22;;;-145.99;100.00
2875;BME280;1445;52.600;13.328;2023-12-28T05:05:36;77699.03;;;-145.99;100.00
2875;BME280;1445;52.600;13.328;2023-12-28T05:08:01;77711.63;;;-145.99;100.00
2875;BME280;1445;52.600;13.328;2023-12-28T05:10:26;77696.94;;;-145.99;100.00
2875;BME280;1445;52.600;13.328;2023-12-28T05:12:52;77715.84;;;-145.99;100.00
2875;BME280;1445;52.600;13.328;2023-12-28T05:15:17;77720.03;;;-145.99;100.00
2875;BME280;1445;52.600;13.328;2023-12-28T05:17:44;77732.63;;;-145.99;100.00
2875;BME280;1445;52.600;13.328;2023-12-28T05:20:10;77713.75;;;-145.99;100.00
2875;BME280;1445;52.600;13.328;2023-12-28T05:22:35;77720.03;;;-145.99;100.00
2875;BME280;1445;52.600;13.328;2023-12-28T05:25:00;77713.75;;;-145.99;100.00
2875;BME280;1445;52.600;13.328;2023-12-28T05:27:26;77732.63;;;-145.99;100.00
2875;BME280;1445;52.600;13.328;2023-12-28T05:29:51;77720.03;;;-145.99;100.00
2875;BME280;1445;52.600;13.328;2023-12-28T05:32:16;77715.84;;;-145.99;100.00
2875;BME280;1445;52.600;13.328;2023-12-28T05:34:42;77722.13;;;-145.99;100.00
2875;BME280;1445;52.600;13.328;2023-12-28T05:37:07;77734.75;;;-145.99;100.00
2875;BME280;1445;52.600;13.328;2023-12-28T05:39:32;77749.44;;;-145.99;100.00
2875;BME280;1445;52.600;13.328;2023-12-28T05:41:58;77749.44;;;-145.99;100.00
2875;BME280;1445;52.600;13.328;2023-12-28T05:44:24;77759.94;;;-145.99;100.00
2875;BME280;1445;52.600;13.328;2023-12-28T05:46:49;77755.75;;;-145.99;100.00
2875;BME280;1445;52.600;13.328;2023-12-28T05:49:14;77757.84;;;-145.99;100.00
2875;BME280;1445;52.600;13.328;2023-12-28T05:51:40;77743.13;;;-145.99;100.00
2875;BME280;1445;52.600;13.328;2023-12-28T05:54:06;77743.13;;;-145.99;100.00
2875;BME280;1445;52.600;13.328;2023-12-28T05:56:31;77732.63;;;-145.99;100.00
2875;BME280;1445;52.600;13.328;2023-12-28T05:58:56;77741.03;;;-145.99;100.00
2875;BME280;1445;52.600;13.328;2023-12-28T06:01:21;77730.53;;;-145.99;100.00
2875;BME280;1445;52.600;13.328;2023-12-28T06:03:47;77753.66;;;-145.99;100.00
2875;BME280;1445;52.600;13.328;2023-12-28T06:06:14;77736.84;;;-145.99;100.00
2875;BME280;1445;52.600;13.328;2023-12-28T06:08:39;77749.44;;;-145.99;100.00
2875;BME280;1445;52.600;13.328;2023-12-28T06:11:05;77753.66;;;-145.99;100.00
2875;BME280;1445;52.600;13.328;2023-12-28T06:13:30;77749.44;;;-145.99;100.00
2875;BME280;1445;52.600;13.328;2023-12-28T06:15:55;77755.75;;;-145.99;100.00
2875;BME280;1445;52.600;13.328;2023-12-28T06:18:20;77762.03;;;-145.99;100.00
2875;BME280;1445;52.600;13.328;2023-12-28T06:20:47;77734.75;;;-145.99;100.00
2875;BME280;1445;52.600;13.328;2023-12-28T06:23:12;77753.66;;;-145.99;100.00
2875;BME280;1445;52.600;13.328;2023-12-28T06:25:37;77749.44;;;-145.99;100.00
2875;BME280;1445;52.600;13.328;2023-12-28T06:28:02;77755.75;;;-145.99;100.00
2875;BME280;1445;52.600;13.328;2023-12-28T06:30:28;77751.53;;;-145.99;100.00
2875;BME280;1445;52.600;13.328;2023-12-28T06:32:53;77743.13;;;-145.99;100.00
2875;BME280;1445;52.600;13.328;2023-12-28T06:35:18;77747.34;;;-145.99;100.00
2875;BME280;1445;52.600;13.328;2023-12-28T06:37:43;77738.94;;;-145.99;100.00
2875;BME280;1445;52.600;13.328;2023-12-28T06:40:09;77776.75;;;-145.99;100.00
2875;BME280;1445;52.600;13.328;2023-12-28T06:42:34;77755.75;;;-145.99;100.00
2875;BME280;1445;52.600;13.328;2023-12-28T06:44:59;77759.94;;;-145.99;100.00
2875;BME280;1445;52.600;13.328;2023-12-28T06:47:25;77749.44;;;-145.99;100.00
2875;BME280;1445;52.600;13.328;2023-12-28T06:49:50;77759.94;;;-145.99;100.00
2875;BME280;1445;52.600;13.328;2023-12-28T06:52:15;77768.34;;;-145.99;100.00
2875;BME280;1445;52.600;13.328;2023-12-28T06:54:41;77759.94;;;-145.99;100.00
2875;BME280;1445;52.600;13.328;2023-12-28T06:57:06;77753.66;;;-145.99;100.00
2875;BME280;1445;52.600;13.328;2023-12-28T06:59:31;77764.16;;;-145.99;100.00
2875;BME280;1445;52.600;13.328;2023-12-28T07:01:57;77768.34;;;-145.99;100.00
2875;BME280;1445;52.600;13.328;2023-12-28T07:04:22;77770.44;;;-145.99;100.00
2875;BME280;1445;52.600;13.328;2023-12-28T07:06:50;77776.75;;;-145.99;100.00
2875;BME280;1445;52.600;13.328;2023-12-28T07:09:15;77783.03;;;-145.99;100.00
2875;BME280;1445;52.600;13.328;2023-12-28T07:11:41;77783.03;;;-145.99;100.00
2875;BME280;1445;52.600;13.328;2023-12-28T07:14:06;77795.66;;;-145.99;100.00
2875;BME280;1445;52.600;13.328;2023-12-28T07:16:31;77783.03;;;-145.99;100.00
2875;BME280;1445;52.600;13.328;2023-12-28T07:18:56;77791.44;;;-145.99;100.00
2875;BME280;1445;52.600;13.328;2023-12-28T07:21:22;77795.66;;;-145.99;100.00
2875;BME280;1445;52.600;13.328;2023-12-28T07:23:47;77804.06;;;-145.99;100.00
2875;BME280;1445;52.600;13.328;2023-12-28T07:26:14;77804.06;;;-145.99;100.00
2875;BME280;1445;52.600;13.328;2023-12-28T07:28:39;77799.84;;;-145.99;100.00
2875;BME280;1445;52.600;13.328;2023-12-28T07:31:07;77806.16;;;-145.99;100.00
2875;BME280;1445;52.600;13.328;2023-12-28T07:33:33;77812.47;;;-145.99;100.00
2875;BME280;1445;52.600;13.328;2023-12-28T07:35:58;77810.34;;;-145.99;100.00
2875;BME280;1445;52.600;13.328;2023-12-28T07:38:27;77808.25;;;-145.99;100.00
2875;BME280;1445;52.600;13.328;2023-12-28T07:40:52;77801.94;;;-145.99;100.00
2875;BME280;1445;52.600;13.328;2023-12-28T07:43:18;77795.66;;;-145.99;100.00
2875;BME280;1445;52.600;13.328;2023-12-28T07:45:43;77810.34;;;-145.99;100.00
2875;BME280;1445;52.600;13.328;2023-12-28T07:48:08;77822.97;;;-145.99;100.00
2875;BME280;1445;52.600;13.328;2023-12-28T07:50:33;77825.06;;;-145.99;100.00
2875;BME280;1445;52.600;13.328;2023-12-28T07:52:59;77831.34;;;-145.99;100.00
2875;BME280;1445;52.600;13.328;2023-12-28T07:55:25;77831.34;;;-145.99;100.00
2875;BME280;1445;52.600;13.328;2023-12-28T07:57:51;77829.25;;;-145.99;100.00
2875;BME280;1445;52.600;13.328;2023-12-28T08:00:16;77822.97;;;-145.99;100.00
2875;BME280;1445;52.600;13.328;2023-12-28T08:02:41;77833.47;;;-145.99;100.00
2875;BME280;1445;52.600;13.328;2023-12-28T08:05:07;77848.16;;;-145.99;100.00
2875;BME280;1445;52.600;13.328;2023-12-28T08:07:32;77837.66;;;-145.99;100.00
2875;BME280;1445;52.600;13.328;2023-12-28T08:09:57;77843.97;;;-145.99;100.00
2875;BME280;1445;52.600;13.328;2023-12-28T08:12:23;77848.16;;;-145.99;100.00
2875;BME280;1445;52.600;13.328;2023-12-28T08:14:49;77843.97;;;-145.99;100.00
2875;BME280;1445;52.600;13.328;2023-12-28T08:17:14;77850.25;;;-145.99;100.00
2875;BME280;1445;52.600;13.328;2023-12-28T08:19:40;77829.25;;;-145.99;100.00
2875;BME280;1445;52.600;13.328;2023-12-28T08:22:05;77848.16;;;-145.99;100.00
2875;BME280;1445;52.600;13.328;2023-12-28T08:24:30;77846.06;;;-145.99;100.00
2875;BME280;1445;52.600;13.328;2023-12-28T08:26:56;77862.88;;;-145.99;100.00
2875;BME280;1445;52.600;13.328;2023-12-28T08:29:25;77841.88;;;-145.99;100.00
2875;BME280;1445;52.600;13.328;2023-12-28T08:31:50;77837.66;;;-145.99;100.00
2875;BME280;1445;52.600;13.328;2023-12-28T08:34:15;77837.66;;;-145.99;100.00
2875;BME280;1445;52.600;13.328;2023-12-28T08:36:41;77837.66;;;-145.99;100.00
2875;BME280;1445;52.600;13.328;2023-12-28T08:39:06;77837.66;;;-145.99;100.00
2875;BME280;1445;52.600;13.328;2023-12-28T08:41:32;77835.56;;;-145.99;100.00
2875;BME280;1445;52.600;13.328;2023-12-28T08:43:57;77829.25;;;-145.99;100.00
2875;BME280;1445;52.600;13.328;2023-12-28T08:46:22;77825.06;;;-145.99;100.00
2875;BME280;1445;52.600;13.328;2023-12-28T08:48:50;77833.47;;;-145.99;100.00
2875;BME280;1445;52.600;13.328;2023-12-28T08:51:15;77827.16;;;-145.99;100.00
2875;BME280;1445;52.600;13.328;2023-12-28T08:53:41;77833.47;;;-145.99;100.00
2875;BME280;1445;52.600;13.328;2023-12-28T08:56:13;77831.34;;;-145.99;100.00
2875;BME280;1445;52.600;13.328;2023-12-28T08:58:38;77818.75;;;-145.99;100.00
2875;BME280;1445;52.600;13.328;2023-12-28T09:01:04;77820.84;;;-145.99;100.00
2875;BME280;1445;52.600;13.328;2023-12-28T09:03:29;77816.66;;;-145.99;100.00
2875;BME280;1445;52.600;13.328;2023-12-28T09:05:54;77835.56;;;-145.99;100.00
2875;BME280;1445;52.600;13.328;2023-12-28T09:08:19;77837.66;;;-145.99;100.00
2875;BME280;1445;52.600;13.328;2023-12-28T09:10:45;77839.75;;;-145.99;100.00
2875;BME280;1445;52.600;13.328;2023-12-28T09:13:14;77835.56;;;-145.99;100.00
2875;BME280;1445;52.600;13.328;2023-12-28T09:15:39;77833.47;;;-145.99;100.00
2875;BME280;1445;52.600;13.328;2023-12-28T09:18:05;77835.56;;;-145.99;100.00
2875;BME280;1445;52.600;13.328;2023-12-28T09:20:30;77820.84;;;-145.99;100.00
2875;BME280;1445;52.600;13.328;2023-12-28T09:22:57;77825.06;;;-145.99;100.00
2875;BME280;1445;52.600;13.328;2023-12-28T09:25:22;77812.47;;;-145.99;100.00
2875;BME280;1445;52.600;13.328;2023-12-28T09:27:47;77808.25;;;-145.99;100.00
2875;BME280;1445;52.600;13.328;2023-12-28T09:30:13;77812.47;;;-145.99;100.00
2875;BME280;1445;52.600;13.328;2023-12-28T09:32:38;77804.06;;;-145.99;100.00
2875;BME280;1445;52.600;13.328;2023-12-28T09:35:03;77810.34;;;-145.99;100.00
2875;BME280;1445;52.600;13.328;2023-12-28T09:37:29;77818.75;;;-145.99;100.00
2875;BME280;1445;52.600;13.328;2023-12-28T09:39:54;77814.56;;;-145.99;100.00
2875;BME280;1445;52.600;13.328;2023-12-28T09:42:25;77806.16;;;-145.99;100.00
2875;BME280;1445;52.600;13.328;2023-12-28T09:44:51;77806.16;;;-145.99;100.00
2875;BME280;1445;52.600;13.328;2023-12-28T09:47:17;77810.34;;;-145.99;100.00
2875;BME280;1445;52.600;13.328;2023-12-28T09:49:42;77812.47;;;-145.99;100.00
2875;BME280;1445;52.600;13.328;2023-12-28T09:52:09;77795.66;;;-145.99;100.00
2875;BME280;1445;52.600;13.328;2023-12-28T09:54:34;77808.25;;;-145.99;100.00
2875;BME280;1445;52.600;13.328;2023-12-28T09:57:00;77812.47;;;-145.99;100.00
2875;BME280;1445;52.600;13.328;2023-12-28T09:59:26;77801.94;;;-145.99;100.00
2875;BME280;1445;52.600;13.328;2023-12-28T10:01:51;77804.06;;;-145.99;100.00
2875;BME280;1445;52.600;13.328;2023-12-28T10:04:19;77797.75;;;-145.99;100.00
2875;BME280;1445;52.600;13.328;2023-12-28T10:06:45;77793.56;;;-145.99;100.00
2875;BME280;1445;52.600;13.328;2023-12-28T10:09:10;77791.44;;;-145.99;100.00
2875;BME280;1445;52.600;13.328;2023-12-28T10:11:36;77774.66;;;-145.99;100.00
2875;BME280;1445;52.600;13.328;2023-12-28T10:14:03;77753.66;;;-145.99;100.00
2875;BME280;1445;52.600;13.328;2023-12-28T10:16:29;77759.94;;;-145.99;100.00
2875;BME280;1445;52.600;13.328;2023-12-28T10:18:55;77738.94;;;-145.99;100.00
2875;BME280;1445;52.600;13.328;2023-12-28T10:21:20;77724.25;;;-145.99;100.00
2875;BME280;1445;52.600;13.328;2023-12-28T10:23:46;77728.44;;;-145.99;100.00
2875;BME280;1445;52.600;13.328;2023-12-28T10:26:11;77707.44;;;-145.99;100.00
2875;BME280;1445;52.600;13.328;2023-12-28T10:28:36;77699.03;;;-145.99;100.00
2875;BME280;1445;52.600;13.328;2023-12-28T10:31:03;77707.44;;;-145.99;100.00
2875;BME280;1445;52.600;13.328;2023-12-28T10:33:33;77690.63;;;-145.99;100.00
2875;BME280;1445;52.600;13.328;2023-12-28T10:35:59;77696.94;;;-145.99;100.00
2875;BME280;1445;52.600;13.328;2023-12-28T10:38:24;77690.63;;;-145.99;100.00
2875;BME280;1445;52.600;13.328;2023-12-28T10:40:50;77707.44;;;-145.99;100.00
2875;BME280;1445;52.600;13.328;2023-12-28T10:43:16;77694.84;;;-145.99;100.00
2875;BME280;1445;52.600;13.328;2023-12-28T10:45:45;77669.63;;;-145.99;100.00
2875;BME280;1445;52.600;13.328;2023-12-28T10:48:11;77665.44;;;-145.99;100.00
2875;BME280;1445;52.600;13.328;2023-12-28T10:50:41;77650.72;;;-145.99;100.00
2875;BME280;1445;52.600;13.328;2023-12-28T10:53:10;77648.63;;;-145.99;100.00
2875;BME280;1445;52.600;13.328;2023-12-28T10:55:41;77663.31;;;-145.99;100.00
2875;BME280;1445;52.600;13.328;2023-12-28T10:58:11;77650.72;;;-145.99;100.00
2875;BME280;1445;52.600;13.328;2023-12-28T11:00:39;77608.72;;;-145.99;100.00
2875;BME280;1445;52.600;13.328;2023-12-28T11:03:06;77627.63;;;-145.99;100.00
2875;BME280;1445;52.600;13.328;2023-12-28T11:05:34;77631.81;;;-145.99;100.00
2875;BME280;1445;52.600;13.328;2023-12-28T11:08:00;77617.13;;;-145.99;100.00
2875;BME280;1445;52.600;13.328;2023-12-28T11:10:28;77581.41;;;-145.99;100.00
2875;BME280;1445;52.600;13.328;2023-12-28T11:12:55;77598.22;;;-145.99;100.00
2875;BME280;1445;52.600;13.328;2023-12-28T11:15:21;77627.63;;;-145.99;100.00
2875;BME280;1445;52.600;13.328;2023-12-28T11:17:48;77627.63;;;-145.99;100.00
2875;BME280;1445;52.600;13.328;2023-12-28T11:20:13;77625.53;;;-145.99;100.00
2875;BME280;1445;52.600;13.328;2023-12-28T11:22:39;77640.22;;;-145.99;100.00
2875;BME280;1445;52.600;13.328;2023-12-28T11:25:05;77625.53;;;-145.99;100.00
2875;BME280;1445;52.600;13.328;2023-12-28T11:27:37;77619.22;;;-145.99;100.00
2875;BME280;1445;52.600;13.328;2023-12-28T11:30:05;77617.13;;;-145.99;100.00
2875;BME280;1445;52.600;13.328;2023-12-28T11:32:38;77606.63;;;-145.99;100.00
2875;BME280;1445;52.600;13.328;2023-12-28T11:35:06;77573.00;;;-145.99;100.00
2875;BME280;1445;52.600;13.328;2023-12-28T11:37:31;77575.09;;;-145.99;100.00
2875;BME280;1445;52.600;13.328;2023-12-28T11:39:57;77587.72;;;-145.99;100.00
2875;BME280;1445;52.600;13.328;2023-12-28T11:42:25;77541.50;;;-145.99;100.00
2875;BME280;1445;52.600;13.328;2023-12-28T11:44:56;77547.81;;;-145.99;100.00
2875;BME280;1445;52.600;13.328;2023-12-28T11:47:22;77528.91;;;-145.99;100.00
2875;BME280;1445;52.600;13.328;2023-12-28T11:49:48;77539.41;;;-145.99;100.00
2875;BME280;1445;52.600;13.328;2023-12-28T11:52:26;77514.19;;;-145.99;100.00
2875;BME280;1445;52.600;13.328;2023-12-28T11:54:51;77537.31;;;-145.99;100.00
2875;BME280;1445;52.600;13.328;2023-12-28T11:57:17;77514.19;;;-145.99;100.00
2875;BME280;1445;52.600;13.328;2023-12-28T11:59:42;77493.19;;;-145.99;100.00
2875;BME280;1445;52.600;13.328;2023-12-28T12:02:08;77505.81;;;-145.99;100.00
2875;BME280;1445;52.600;13.328;2023-12-28T12:04:34;77480.59;;;-145.99;100.00
2875;BME280;1445;52.600;13.328;2023-12-28T12:07:03;77461.69;;;-145.99;100.00
2875;BME280;1445;52.600;13.328;2023-12-28T12:09:31;77434.41;;;-145.99;100.00
2875;BME280;1445;52.600;13.328;2023-12-28T12:12:02;77447.00;;;-145.99;100.00
2875;BME280;1445;52.600;13.328;2023-12-28T12:14:28;77438.59;;;-145.99;100.00
2875;BME280;1445;52.600;13.328;2023-12-28T12:16:54;77428.09;;;-145.99;100.00
2875;BME280;1445;52.600;13.328;2023-12-28T12:19:21;77444.91;;;-145.99;100.00
2875;BME280;1445;52.600;13.328;2023-12-28T12:21:47;77451.19;;;-145.99;100.00
2875;BME280;1445;52.600;13.328;2023-12-28T12:24:13;77428.09;;;-145.99;100.00
2875;BME280;1445;52.600;13.328;2023-12-28T12:26:38;77417.59;;;-145.99;100.00
2875;BME280;1445;52.600;13.328;2023-12-28T12:29:03;77430.19;;;-145.99;100.00
2875;BME280;1445;52.600;13.328;2023-12-28T12:31:29;77444.91;;;-145.99;100.00
2875;BME280;1445;52.600;13.328;2023-12-28T12:33:54;77419.69;;;-145.99;100.00